sensor_id;sensor_type;location;lat;lon;timestamp;pressure;altitude;pressure_sealevel;temperature;humidity
48404;BME280;34202;52.536;6.042;2022-08-21T00:00:37;101760.42;;;17.23;74.10
48404;BME280;34202;52.536;6.042;2022-08-21T00:05:44;101762.77;;;17.15;74.09
48404;BME280;34202;52.536;6.042;2022-08-21T00:10:46;101761.39;;;17.07;74.11
48404;BME280;34202;52.536;6.042;2022-08-21T00:15:48;101762.66;;;16.99;74.26
48404;BME280;34202;52.536;6.042;2022-08-21T00:20:49;101759.18;;;16.93;74.35
48404;BME280;34202;52.536;6.042;2022-08-21T00:25:49;101759.73;;;16.87;74.44
48404;BME280;34202;52.536;6.042;2022-08-21T00:30:49;101752.70;;;16.80;74.53
48404;BME280;34202;52.536;6.042;2022-08-21T00:35:52;101749.21;;;16.75;74.69
48404;BME280;34202;52.536;6.042;2022-08-21T00:40:59;101749.94;;;16.68;74.73
48404;BME280;34202;52.536;6.042;2022-08-21T00:46:01;101752.44;;;16.62;74.53
48404;BME280;34202;52.536;6.042;2022-08-21T00:51:17;101750.88;;;16.55;74.64
48404;BME280;34202;52.536;6.042;2022-08-21T00:56:24;101753.00;;;16.49;74.77
48404;BME280;34202;52.536;6.042;2022-08-21T01:01:24;101751.08;;;16.43;75.02
48404;BME280;34202;52.536;6.042;2022-08-21T01:06:25;101748.81;;;16.38;75.22
48404;BME280;34202;52.536;6.042;2022-08-21T01:11:25;101749.71;;;16.34;75.35
48404;BME280;34202;52.536;6.042;2022-08-21T01:16:26;101750.42;;;16.29;75.32
48404;BME280;34202;52.536;6.042;2022-08-21T01:21:27;101752.19;;;16.23;75.40
48404;BME280;34202;52.536;6.042;2022-08-21T01:26:31;101752.73;;;16.18;75.58
48404;BME280;34202;52.536;6.042;2022-08-21T01:31:32;101757.65;;;16.14;75.81
48404;BME280;34202;52.536;6.042;2022-08-21T01:36:33;101756.09;;;16.10;75.89
48404;BME280;34202;52.536;6.042;2022-08-21T01:41:33;101747.14;;;16.03;75.90
48404;BME280;34202;52.536;6.042;2022-08-21T01:46:34;101745.39;;;15.97;75.98
48404;BME280;34202;52.536;6.042;2022-08-21T01:51:35;101747.32;;;15.93;76.26
48404;BME280;34202;52.536;6.042;2022-08-21T01:56:37;101739.78;;;15.88;76.64
48404;BME280;34202;52.536;6.042;2022-08-21T02:01:39;101736.27;;;15.84;76.75
48404;BME280;34202;52.536;6.042;2022-08-21T02:06:40;101730.48;;;15.81;76.85
48404;BME280;34202;52.536;6.042;2022-08-21T02:11:41;101722.42;;;15.78;76.77
48404;BME280;34202;52.536;6.042;2022-08-21T02:16:43;101718.73;;;15.75;77.10
48404;BME280;34202;52.536;6.042;2022-08-21T02:22:45;101719.05;;;15.75;77.25
48404;BME280;34202;52.536;6.042;2022-08-21T02:27:47;101714.84;;;15.71;77.37
48404;BME280;34202;52.536;6.042;2022-08-21T02:32:48;101707.64;;;15.68;77.50
48404;BME280;34202;52.536;6.042;2022-08-21T02:37:53;101708.35;;;15.65;77.78
48404;BME280;34202;52.536;6.042;2022-08-21T02:42:54;101710.63;;;15.63;77.61
48404;BME280;34202;52.536;6.042;2022-08-21T02:47:58;101712.75;;;15.60;77.85
48404;BME280;34202;52.536;6.042;2022-08-21T02:53:00;101716.08;;;15.58;77.95
48404;BME280;34202;52.536;6.042;2022-08-21T02:58:02;101711.33;;;15.55;78.00
48404;BME280;34202;52.536;6.042;2022-08-21T03:03:04;101703.44;;;15.53;78.13
48404;BME280;34202;52.536;6.042;2022-08-21T03:08:08;101699.40;;;15.51;78.25
48404;BME280;34202;52.536;6.042;2022-08-21T03:13:12;101699.92;;;15.49;78.42
48404;BME280;34202;52.536;6.042;2022-08-21T03:18:12;101696.95;;;15.48;78.35
48404;BME280;34202;52.536;6.042;2022-08-21T03:23:14;101699.05;;;15.46;78.38
48404;BME280;34202;52.536;6.042;2022-08-21T03:28:18;101697.64;;;15.44;78.58
48404;BME280;34202;52.536;6.042;2022-08-21T03:33:20;101697.98;;;15.42;78.72
48404;BME280;34202;52.536;6.042;2022-08-21T03:38:20;101697.48;;;15.40;78.54
48404;BME280;34202;52.536;6.042;2022-08-21T03:43:21;101694.66;;;15.37;78.53
48404;BME280;34202;52.536;6.042;2022-08-21T03:48:21;101691.67;;;15.34;78.36
48404;BME280;34202;52.536;6.042;2022-08-21T03:53:22;101681.50;;;15.31;78.37
48404;BME280;34202;52.536;6.042;2022-08-21T03:58:25;101681.85;;;15.29;78.59
48404;BME280;34202;52.536;6.042;2022-08-21T04:03:26;101684.13;;;15.25;78.56
48404;BME280;34202;52.536;6.042;2022-08-21T04:08:27;101684.30;;;15.22;78.69
48404;BME280;34202;52.536;6.042;2022-08-21T04:13:27;101687.81;;;15.18;78.66
48404;BME280;34202;52.536;6.042;2022-08-21T04:18:28;101686.58;;;15.16;78.95
48404;BME280;34202;52.536;6.042;2022-08-21T04:23:29;101686.75;;;15.13;79.00
48404;BME280;34202;52.536;6.042;2022-08-21T04:28:29;101690.43;;;15.11;79.18
48404;BME280;34202;52.536;6.042;2022-08-21T04:33:30;101687.97;;;15.09;79.26
48404;BME280;34202;52.536;6.042;2022-08-21T04:38:30;101685.86;;;15.07;79.44
48404;BME280;34202;52.536;6.042;2022-08-21T04:43:32;101681.48;;;15.05;79.68
48404;BME280;34202;52.536;6.042;2022-08-21T04:48:33;101683.23;;;15.03;79.99
48404;BME280;34202;52.536;6.042;2022-08-21T04:53:44;101687.09;;;15.02;80.03
48404;BME280;34202;52.536;6.042;2022-08-21T04:58:46;101684.10;;;15.00;80.28
48404;BME280;34202;52.536;6.042;2022-08-21T05:03:50;101691.29;;;15.00;80.36
48404;BME280;34202;52.536;6.042;2022-08-21T05:08:54;101699.52;;;15.00;80.46
48404;BME280;34202;52.536;6.042;2022-08-21T05:13:55;101704.08;;;15.00;80.63
48404;BME280;34202;52.536;6.042;2022-08-21T05:18:55;101704.78;;;15.00;80.61
48404;BME280;34202;52.536;6.042;2022-08-21T05:23:56;101706.36;;;14.99;80.98
48404;BME280;34202;52.536;6.042;2022-08-21T05:28:56;101704.44;;;15.00;81.18
48404;BME280;34202;52.536;6.042;2022-08-21T05:33:57;101708.29;;;15.01;81.40
48404;BME280;34202;52.536;6.042;2022-08-21T05:38:57;101708.65;;;15.04;81.63
48404;BME280;34202;52.536;6.042;2022-08-21T05:43:57;101708.66;;;15.06;81.89
48404;BME280;34202;52.536;6.042;2022-08-21T05:48:58;101703.77;;;15.11;82.13
48404;BME280;34202;52.536;6.042;2022-08-21T05:53:58;101704.64;;;15.14;82.51
48404;BME280;34202;52.536;6.042;2022-08-21T05:58:58;101705.88;;;15.17;82.24
48404;BME280;34202;52.536;6.042;2022-08-21T06:03:59;101702.55;;;15.23;82.64
48404;BME280;34202;52.536;6.042;2022-08-21T06:08:59;101704.30;;;15.28;82.93
48404;BME280;34202;52.536;6.042;2022-08-21T06:14:00;101701.50;;;15.33;82.79
48404;BME280;34202;52.536;6.042;2022-08-21T06:19:00;101695.02;;;15.39;83.22
48404;BME280;34202;52.536;6.042;2022-08-21T06:24:00;101699.23;;;15.45;83.88
48404;BME280;34202;52.536;6.042;2022-08-21T06:29:01;101696.77;;;15.54;84.38
48404;BME280;34202;52.536;6.042;2022-08-21T06:34:02;101691.69;;;15.62;84.63
48404;BME280;34202;52.536;6.042;2022-08-21T06:39:03;101692.21;;;15.74;85.00
48404;BME280;34202;52.536;6.042;2022-08-21T06:44:03;101695.73;;;15.88;85.40
48404;BME280;34202;52.536;6.042;2022-08-21T06:49:04;101696.92;;;16.05;85.90
48404;BME280;34202;52.536;6.042;2022-08-21T06:54:04;101696.70;;;16.24;85.94
48404;BME280;34202;52.536;6.042;2022-08-21T06:59:05;101699.96;;;16.43;86.00
48404;BME280;34202;52.536;6.042;2022-08-21T07:04:06;101697.05;;;16.66;85.88
48404;BME280;34202;52.536;6.042;2022-08-21T07:09:06;101697.84;;;16.88;85.51
48404;BME280;34202;52.536;6.042;2022-08-21T07:14:07;101692.60;;;17.12;85.16
48404;BME280;34202;52.536;6.042;2022-08-21T07:19:07;101691.71;;;17.35;84.93
48404;BME280;34202;52.536;6.042;2022-08-21T07:24:07;101695.04;;;17.59;84.49
48404;BME280;34202;52.536;6.042;2022-08-21T07:29:09;101702.05;;;17.83;83.92
48404;BME280;34202;52.536;6.042;2022-08-21T07:34:09;101701.67;;;18.06;83.37
48404;BME280;34202;52.536;6.042;2022-08-21T07:39:09;101701.41;;;18.29;82.96
48404;BME280;34202;52.536;6.042;2022-08-21T07:44:10;101702.53;;;18.53;82.22
48404;BME280;34202;52.536;6.042;2022-08-21T07:49:10;101699.26;;;18.76;81.57
48404;BME280;34202;52.536;6.042;2022-08-21T07:54:11;101699.48;;;18.99;80.63
48404;BME280;34202;52.536;6.042;2022-08-21T07:59:11;101698.59;;;19.22;79.67
48404;BME280;34202;52.536;6.042;2022-08-21T08:04:12;101692.23;;;19.44;78.84
48404;BME280;34202;52.536;6.042;2022-08-21T08:09:13;101693.93;;;19.70;78.20
48404;BME280;34202;52.536;6.042;2022-08-21T08:14:13;101695.10;;;19.94;77.69
48404;BME280;34202;52.536;6.042;2022-08-21T08:19:13;101699.02;;;20.20;76.79
48404;BME280;34202;52.536;6.042;2022-08-21T08:24:14;101694.30;;;20.44;75.92
48404;BME280;34202;52.536;6.042;2022-08-21T08:29:14;101691.02;;;20.67;75.55
48404;BME280;34202;52.536;6.042;2022-08-21T08:34:15;101691.79;;;20.88;74.89
48404;BME280;34202;52.536;6.042;2022-08-21T08:39:15;101692.69;;;21.11;74.58
48404;BME280;34202;52.536;6.042;2022-08-21T08:44:15;101680.69;;;21.31;73.85
48404;BME280;34202;52.536;6.042;2022-08-21T08:49:40;101679.23;;;21.54;74.21
48404;BME280;34202;52.536;6.042;2022-08-21T08:54:46;101681.65;;;21.84;73.95
48404;BME280;34202;52.536;6.042;2022-08-21T08:59:53;101679.80;;;22.06;73.55
48404;BME280;34202;52.536;6.042;2022-08-21T09:04:56;101676.23;;;22.26;72.95
48404;BME280;34202;52.536;6.042;2022-08-21T09:26:47;101678.55;;;23.52;71.21
48404;BME280;34202;52.536;6.042;2022-08-21T09:31:51;101676.94;;;23.78;70.59
48404;BME280;34202;52.536;6.042;2022-08-21T09:36:52;101674.82;;;24.08;70.29
48404;BME280;34202;52.536;6.042;2022-08-21T09:41:59;101676.33;;;24.30;69.22
48404;BME280;34202;52.536;6.042;2022-08-21T09:47:00;101674.98;;;24.52;68.63
48404;BME280;34202;52.536;6.042;2022-08-21T09:52:03;101673.20;;;24.75;67.99
48404;BME280;34202;52.536;6.042;2022-08-21T10:02:32;101673.55;;;25.15;66.53
48404;BME280;34202;52.536;6.042;2022-08-21T10:07:36;101673.33;;;25.35;66.21
48404;BME280;34202;52.536;6.042;2022-08-21T10:12:58;101670.99;;;25.55;65.72
48404;BME280;34202;52.536;6.042;2022-08-21T10:23:40;101667.26;;;26.05;64.39
48404;BME280;34202;52.536;6.042;2022-08-21T10:29:19;101662.34;;;26.34;64.08
48404;BME280;34202;52.536;6.042;2022-08-21T10:39:35;101658.22;;;26.92;61.40
48404;BME280;34202;52.536;6.042;2022-08-21T10:55:30;101651.30;;;27.27;57.68
48404;BME280;34202;52.536;6.042;2022-08-21T11:00:50;101651.84;;;27.27;57.42
48404;BME280;34202;52.536;6.042;2022-08-21T11:05:57;101647.66;;;27.39;57.05
48404;BME280;34202;52.536;6.042;2022-08-21T11:11:12;101645.14;;;27.46;55.72
48404;BME280;34202;52.536;6.042;2022-08-21T11:16:31;101651.98;;;27.42;55.13
48404;BME280;34202;52.536;6.042;2022-08-21T11:21:44;101654.39;;;27.37;55.29
48404;BME280;34202;52.536;6.042;2022-08-21T11:26:52;101651.59;;;27.43;55.28
48404;BME280;34202;52.536;6.042;2022-08-21T11:32:20;101652.62;;;27.43;55.10
48404;BME280;34202;52.536;6.042;2022-08-21T11:42:50;101642.58;;;27.54;55.09
48404;BME280;34202;52.536;6.042;2022-08-21T11:48:10;101641.75;;;27.56;54.50
48404;BME280;34202;52.536;6.042;2022-08-21T11:58:28;101637.81;;;27.64;53.87
48404;BME280;34202;52.536;6.042;2022-08-21T12:03:42;101639.48;;;27.63;53.65
48404;BME280;34202;52.536;6.042;2022-08-21T12:09:02;101646.21;;;27.70;53.35
48404;BME280;34202;52.536;6.042;2022-08-21T12:19:11;101652.88;;;27.73;51.57
48404;BME280;34202;52.536;6.042;2022-08-21T12:29:22;101645.84;;;27.81;51.54
48404;BME280;34202;52.536;6.042;2022-08-21T12:34:31;101638.02;;;27.87;51.50
48404;BME280;34202;52.536;6.042;2022-08-21T12:39:36;101642.73;;;27.96;51.40
48404;BME280;34202;52.536;6.042;2022-08-21T12:44:54;101645.15;;;28.01;50.98
48404;BME280;34202;52.536;6.042;2022-08-21T12:50:11;101647.44;;;28.12;50.88
48404;BME280;34202;52.536;6.042;2022-08-21T12:55:14;101652.63;;;28.12;51.13
48404;BME280;34202;52.536;6.042;2022-08-21T13:00:22;101654.52;;;27.96;51.32
48404;BME280;34202;52.536;6.042;2022-08-21T13:10:29;101660.85;;;27.61;50.62
48404;BME280;34202;52.536;6.042;2022-08-21T13:15:34;101657.45;;;27.47;51.12
48404;BME280;34202;52.536;6.042;2022-08-21T13:20:39;101660.95;;;27.45;50.88
48404;BME280;34202;52.536;6.042;2022-08-21T13:25:41;101664.46;;;27.32;50.67
48404;BME280;34202;52.536;6.042;2022-08-21T13:30:53;101663.33;;;27.19;50.15
48404;BME280;34202;52.536;6.042;2022-08-21T13:36:04;101659.58;;;27.15;50.45
48404;BME280;34202;52.536;6.042;2022-08-21T13:46:18;101655.98;;;27.00;50.36
48404;BME280;34202;52.536;6.042;2022-08-21T13:51:22;101663.08;;;27.02;49.90
48404;BME280;34202;52.536;6.042;2022-08-21T14:01:30;101657.42;;;27.12;49.60
48404;BME280;34202;52.536;6.042;2022-08-21T14:06:37;101660.17;;;27.06;49.49
48404;BME280;34202;52.536;6.042;2022-08-21T14:17:14;101660.08;;;27.16;48.70
48404;BME280;34202;52.536;6.042;2022-08-21T14:22:39;101657.82;;;27.03;48.47
48404;BME280;34202;52.536;6.042;2022-08-21T14:27:53;101656.80;;;26.92;48.15
48404;BME280;34202;52.536;6.042;2022-08-21T14:32:53;101659.60;;;26.93;48.33
48404;BME280;34202;52.536;6.042;2022-08-21T14:37:54;101663.75;;;26.99;48.36
48404;BME280;34202;52.536;6.042;2022-08-21T14:42:54;101664.08;;;27.00;48.01
48404;BME280;34202;52.536;6.042;2022-08-21T14:47:56;101664.51;;;26.94;47.15
48404;BME280;34202;52.536;6.042;2022-08-21T14:52:57;101666.33;;;26.83;46.84
48404;BME280;34202;52.536;6.042;2022-08-21T14:57:57;101663.95;;;26.73;46.71
48404;BME280;34202;52.536;6.042;2022-08-21T15:02:58;101664.23;;;26.67;46.96
48404;BME280;34202;52.536;6.042;2022-08-21T15:07:58;101663.05;;;26.66;46.94
48404;BME280;34202;52.536;6.042;2022-08-21T15:12:58;101669.31;;;26.57;46.63
48404;BME280;34202;52.536;6.042;2022-08-21T15:17:59;101672.42;;;26.48;46.29
48404;BME280;34202;52.536;6.042;2022-08-21T15:22:59;101673.05;;;26.42;46.11
48404;BME280;34202;52.536;6.042;2022-08-21T15:28:00;101675.77;;;26.33;45.72
48404;BME280;34202;52.536;6.042;2022-08-21T15:33:01;101677.61;;;26.20;45.81
48404;BME280;34202;52.536;6.042;2022-08-21T15:38:02;101674.40;;;26.13;46.21
48404;BME280;34202;52.536;6.042;2022-08-21T15:43:04;101677.96;;;26.05;46.42
48404;BME280;34202;52.536;6.042;2022-08-21T15:48:05;101682.08;;;25.96;46.09
48404;BME280;34202;52.536;6.042;2022-08-21T15:53:06;101679.48;;;25.86;46.52
48404;BME280;34202;52.536;6.042;2022-08-21T15:58:12;101681.42;;;25.82;46.56
48404;BME280;34202;52.536;6.042;2022-08-21T16:03:16;101683.88;;;25.79;47.04
48404;BME280;34202;52.536;6.042;2022-08-21T16:08:19;101686.09;;;25.78;47.29
48404;BME280;34202;52.536;6.042;2022-08-21T16:13:25;101690.83;;;25.75;47.79
48404;BME280;34202;52.536;6.042;2022-08-21T16:18:27;101691.22;;;25.70;48.06
48404;BME280;34202;52.536;6.042;2022-08-21T16:23:27;101689.66;;;25.57;48.14
48404;BME280;34202;52.536;6.042;2022-08-21T16:28:28;101687.41;;;25.47;48.44
48404;BME280;34202;52.536;6.042;2022-08-21T16:33:33;101693.31;;;25.33;48.32
48404;BME280;34202;52.536;6.042;2022-08-21T16:38:35;101696.19;;;25.24;48.37
48404;BME280;34202;52.536;6.042;2022-08-21T16:43:39;101691.34;;;25.16;48.55
48404;BME280;34202;52.536;6.042;2022-08-21T16:48:42;101697.70;;;25.08;48.56
48404;BME280;34202;52.536;6.042;2022-08-21T16:53:44;101696.34;;;25.02;49.17
48404;BME280;34202;52.536;6.042;2022-08-21T16:58:46;101699.95;;;24.92;49.63
48404;BME280;34202;52.536;6.042;2022-08-21T17:03:48;101697.72;;;24.81;50.03
48404;BME280;34202;52.536;6.042;2022-08-21T17:08:51;101702.32;;;24.77;50.53
48404;BME280;34202;52.536;6.042;2022-08-21T17:13:52;101704.98;;;24.68;50.05
48404;BME280;34202;52.536;6.042;2022-08-21T17:18:53;101707.46;;;24.54;50.49
48404;BME280;34202;52.536;6.042;2022-08-21T17:23:53;101708.16;;;24.44;51.01
48404;BME280;34202;52.536;6.042;2022-08-21T17:28:53;101707.58;;;24.36;51.45
48404;BME280;34202;52.536;6.042;2022-08-21T17:33:54;101707.77;;;24.27;51.95
48404;BME280;34202;52.536;6.042;2022-08-21T17:38:55;101711.11;;;24.12;52.02
48404;BME280;34202;52.536;6.042;2022-08-21T17:43:56;101715.69;;;24.04;52.65
48404;BME280;34202;52.536;6.042;2022-08-21T17:48:57;101709.72;;;23.92;52.93
48404;BME280;34202;52.536;6.042;2022-08-21T17:53:57;101714.94;;;23.74;53.28
48404;BME280;34202;52.536;6.042;2022-08-21T17:58:58;101708.19;;;23.48;53.79
48404;BME280;34202;52.536;6.042;2022-08-21T18:03:59;101719.38;;;23.32;54.64
48404;BME280;34202;52.536;6.042;2022-08-21T18:08:59;101722.49;;;23.05;55.33
48404;BME280;34202;52.536;6.042;2022-08-21T18:14:01;101720.45;;;22.96;56.17
48404;BME280;34202;52.536;6.042;2022-08-21T18:19:06;101728.21;;;22.81;56.47
48404;BME280;34202;52.536;6.042;2022-08-21T18:24:08;101727.95;;;22.48;56.91
48404;BME280;34202;52.536;6.042;2022-08-21T18:29:11;101726.95;;;22.19;57.67
48404;BME280;34202;52.536;6.042;2022-08-21T18:34:34;101732.88;;;22.03;58.39
48404;BME280;34202;52.536;6.042;2022-08-21T18:39:36;101739.17;;;21.93;58.77
48404;BME280;34202;52.536;6.042;2022-08-21T18:44:38;101740.65;;;21.77;59.13
48404;BME280;34202;52.536;6.042;2022-08-21T18:49:40;101746.56;;;21.53;59.39
48404;BME280;34202;52.536;6.042;2022-08-21T18:54:41;101746.81;;;21.19;59.90
48404;BME280;34202;52.536;6.042;2022-08-21T18:59:41;101750.92;;;20.93;60.62
48404;BME280;34202;52.536;6.042;2022-08-21T19:04:42;101751.33;;;20.75;61.18
48404;BME280;34202;52.536;6.042;2022-08-21T19:09:43;101751.16;;;20.56;61.70
48404;BME280;34202;52.536;6.042;2022-08-21T19:14:43;101747.39;;;20.50;62.18
48404;BME280;34202;52.536;6.042;2022-08-21T19:19:44;101747.95;;;20.39;62.67
48404;BME280;34202;52.536;6.042;2022-08-21T19:24:45;101751.63;;;20.33;62.94
48404;BME280;34202;52.536;6.042;2022-08-21T19:29:45;101748.73;;;20.27;63.08
48404;BME280;34202;52.536;6.042;2022-08-21T19:34:46;101747.77;;;20.21;63.12
48404;BME280;34202;52.536;6.042;2022-08-21T19:39:47;101748.52;;;20.20;63.28
48404;BME280;34202;52.536;6.042;2022-08-21T19:44:48;101747.80;;;20.20;63.42
48404;BME280;34202;52.536;6.042;2022-08-21T19:49:56;101752.39;;;20.11;63.38
48404;BME280;34202;52.536;6.042;2022-08-21T19:54:57;101757.35;;;20.11;63.70
48404;BME280;34202;52.536;6.042;2022-08-21T19:59:57;101763.83;;;20.14;63.94
48404;BME280;34202;52.536;6.042;2022-08-21T20:04:57;101765.36;;;20.16;63.85
48404;BME280;34202;52.536;6.042;2022-08-21T20:09:58;101768.11;;;20.12;63.93
48404;BME280;34202;52.536;6.042;2022-08-21T20:14:58;101773.38;;;20.13;64.09
48404;BME280;34202;52.536;6.042;2022-08-21T20:19:59;101777.56;;;20.16;64.37
48404;BME280;34202;52.536;6.042;2022-08-21T20:24:59;101780.86;;;20.19;64.37
48404;BME280;34202;52.536;6.042;2022-08-21T20:30:00;101783.20;;;20.17;64.38
48404;BME280;34202;52.536;6.042;2022-08-21T20:35:01;101782.69;;;20.16;64.59
48404;BME280;34202;52.536;6.042;2022-08-21T20:40:04;101785.06;;;20.12;64.49
48404;BME280;34202;52.536;6.042;2022-08-21T20:45:09;101783.91;;;20.07;64.66
48404;BME280;34202;52.536;6.042;2022-08-21T20:50:11;101784.35;;;20.02;64.96
48404;BME280;34202;52.536;6.042;2022-08-21T20:55:18;101783.08;;;19.94;65.03
48404;BME280;34202;52.536;6.042;2022-08-21T21:00:23;101786.38;;;19.76;65.12
48404;BME280;34202;52.536;6.042;2022-08-21T21:05:28;101786.65;;;19.68;65.65
48404;BME280;34202;52.536;6.042;2022-08-21T21:10:40;101786.45;;;19.59;65.85
48404;BME280;34202;52.536;6.042;2022-08-21T21:15:42;101792.05;;;19.51;65.99
48404;BME280;34202;52.536;6.042;2022-08-21T21:20:48;101794.08;;;19.45;66.53
48404;BME280;34202;52.536;6.042;2022-08-21T21:25:59;101794.15;;;19.40;66.77
48404;BME280;34202;52.536;6.042;2022-08-21T21:31:02;101793.71;;;19.34;67.06
48404;BME280;34202;52.536;6.042;2022-08-21T21:36:18;101792.05;;;19.27;67.35
48404;BME280;34202;52.536;6.042;2022-08-21T22:13:53;101797.52;;;18.71;69.53
48404;BME280;34202;52.536;6.042;2022-08-21T22:19:08;101797.07;;;18.64;69.79
48404;BME280;34202;52.536;6.042;2022-08-21T22:24:20;101799.59;;;18.59;70.21
48404;BME280;34202;52.536;6.042;2022-08-21T22:29:22;101794.30;;;18.59;70.43
48404;BME280;34202;52.536;6.042;2022-08-21T22:34:23;101795.07;;;18.54;70.59
48404;BME280;34202;52.536;6.042;2022-08-21T22:39:34;101796.23;;;18.43;70.82
48404;BME280;34202;52.536;6.042;2022-08-21T22:44:55;101786.31;;;18.31;71.17
48404;BME280;34202;52.536;6.042;2022-08-21T22:49:57;101785.89;;;18.21;71.69
48404;BME280;34202;52.536;6.042;2022-08-21T22:55:01;101788.58;;;18.16;71.95
48404;BME280;34202;52.536;6.042;2022-08-21T23:00:14;101787.53;;;18.15;72.14
48404;BME280;34202;52.536;6.042;2022-08-21T23:05:22;101789.64;;;18.16;72.51
48404;BME280;34202;52.536;6.042;2022-08-21T23:10:27;101791.19;;;18.19;72.55
48404;BME280;34202;52.536;6.042;2022-08-21T23:15:34;101787.50;;;18.19;72.64
48404;BME280;34202;52.536;6.042;2022-08-21T23:26:16;101780.89;;;18.11;72.83
48404;BME280;34202;52.536;6.042;2022-08-21T23:31:33;101783.39;;;18.06;72.98
48404;BME280;34202;52.536;6.042;2022-08-21T23:42:32;101777.10;;;18.03;73.02
